TAF Text Data
IDs:
Format:
Raw Decoded Include METAR

Data at: 1409 UTC 19 Jul 2019

METAR for:KTOB (Dodge Center Arpt, MN, US)
Text:KTOB 191356Z AUTO 16008KT 7SM BKN006 26/25 A2978 RMK AO2
Temperature: 26.0°C ( 79°F)
Dewpoint: 25.0°C ( 77°F) [RH = 94%]
Pressure (altimeter):29.78 inches Hg (1008.5 mb)
Winds:from the SSE (160 degrees) at 9 MPH (8 knots; 4.1 m/s)
Visibility: 7 sm ( 11 km)
Ceiling:600 feet AGL
Clouds: broken clouds at 600 feet AGL
QC Flag:automated observation with no human augmentation

TAF for:KTOB (Dodge Center Arpt, MN, US)
Text:No data found